createdAt,value
2023-05-02T00:00:08.457Z,11.96
2023-05-02T00:00:32.081Z,12.12
2023-05-02T00:00:39.248Z,12.39
2023-05-02T00:00:49.132Z,12.34
2023-05-02T00:00:59.581Z,12.00
2023-05-02T00:01:07.311Z,11.65
2023-05-02T00:01:17.060Z,11.73
2023-05-02T00:01:36.415Z,12.80
2023-05-02T00:01:43.655Z,12.77
2023-05-02T00:01:50.841Z,13.33
2023-05-02T00:02:07.957Z,12.30
2023-05-02T00:02:15.279Z,12.00
2023-05-02T00:02:22.614Z,11.60
2023-05-02T00:02:37.198Z,11.60
2023-05-02T00:02:44.795Z,11.64
2023-05-02T00:02:52.497Z,11.42
2023-05-02T00:03:08.414Z,10.77
2023-05-02T00:03:17.568Z,10.81
2023-05-02T00:03:25.818Z,10.91
2023-05-02T00:03:43.938Z,10.83
2023-05-02T00:03:51.434Z,10.93
2023-05-02T00:03:58.868Z,10.93
2023-05-02T00:04:13.461Z,10.88
2023-05-02T00:04:23.406Z,10.67
2023-05-02T00:04:31.139Z,10.27
2023-05-02T00:04:45.838Z,10.83
2023-05-02T00:04:53.551Z,10.90
2023-05-02T00:05:05.492Z,10.86
2023-05-02T00:05:22.077Z,10.54
2023-05-02T00:05:29.450Z,10.23
2023-05-02T00:05:37.091Z,10.66
2023-05-02T00:05:51.955Z,11.12
2023-05-02T00:06:00.644Z,11.53
2023-05-02T00:06:08.090Z,11.17
2023-05-02T00:06:29.888Z,10.68
2023-05-02T00:06:37.383Z,10.30
2023-05-02T00:06:46.747Z,10.36
2023-05-02T00:06:54.357Z,10.13
2023-05-02T00:07:01.688Z,10.06
2023-05-02T00:07:08.884Z,10.27
2023-05-02T00:07:31.697Z,11.13
2023-05-02T00:07:38.964Z,10.93
2023-05-02T00:07:46.642Z,10.80
2023-05-02T00:07:56.896Z,10.43
2023-05-02T00:08:05.958Z,10.06
2023-05-02T00:08:13.327Z,10.07
2023-05-02T00:08:36.599Z,10.84
2023-05-02T00:08:44.411Z,10.97
2023-05-02T00:08:51.855Z,10.97
2023-05-02T00:08:59.367Z,10.98
2023-05-02T00:09:08.997Z,10.50
2023-05-02T00:09:17.702Z,10.13
2023-05-02T00:09:39.386Z,9.81
2023-05-02T00:09:47.049Z,9.88
2023-05-02T00:09:55.111Z,9.84
2023-05-02T00:10:03.316Z,9.93
2023-05-02T00:10:13.168Z,10.00
2023-05-02T00:10:22.488Z,9.71
2023-05-02T00:10:44.046Z,9.72
2023-05-02T00:10:52.300Z,10.03
2023-05-02T00:10:59.494Z,10.40
2023-05-02T00:11:06.693Z,10.25
2023-05-02T00:11:16.522Z,9.58
2023-05-02T00:11:24.640Z,9.23
2023-05-02T00:11:46.492Z,9.30
2023-05-02T00:11:56.038Z,9.38
2023-05-02T00:12:04.281Z,9.32
2023-05-02T00:12:11.448Z,9.43
2023-05-02T00:12:18.737Z,9.20
2023-05-02T00:12:26.245Z,9.23
2023-05-02T00:12:52.739Z,8.78
2023-05-02T00:12:59.886Z,8.47
2023-05-02T00:13:07.218Z,8.00
2023-05-02T00:13:14.504Z,7.83
2023-05-02T00:13:21.730Z,7.57
2023-05-02T00:13:28.888Z,7.56
2023-05-02T00:13:58.764Z,7.63
2023-05-02T00:14:08.758Z,7.87
2023-05-02T00:14:15.961Z,7.95
2023-05-02T00:14:23.201Z,8.06
2023-05-02T00:14:30.404Z,8.28
2023-05-02T00:14:37.599Z,8.02
2023-05-02T00:15:01.326Z,8.20
2023-05-02T00:15:10.137Z,8.26
2023-05-02T00:15:17.424Z,8.09
2023-05-02T00:15:24.679Z,7.53
2023-05-02T00:15:31.976Z,7.03
2023-05-02T00:15:39.168Z,6.80
2023-05-02T00:16:03.279Z,7.33
2023-05-02T00:16:12.611Z,7.63
2023-05-02T00:16:19.772Z,7.69
2023-05-02T00:16:26.979Z,7.30
2023-05-02T00:16:34.317Z,7.20
2023-05-02T00:16:41.785Z,7.23
2023-05-02T00:17:03.529Z,7.23
2023-05-02T00:17:20.409Z,7.38
2023-05-02T00:17:27.715Z,7.39
2023-05-02T00:17:35.018Z,7.70
2023-05-02T00:17:42.767Z,7.83
2023-05-02T00:17:50.013Z,7.75
2023-05-02T00:18:04.427Z,7.67
2023-05-02T00:18:28.366Z,7.77
2023-05-02T00:18:35.617Z,7.56
2023-05-02T00:18:45.433Z,7.60
2023-05-02T00:18:52.608Z,7.33
2023-05-02T00:18:59.821Z,7.57
2023-05-02T00:19:07.146Z,8.12
2023-05-02T00:19:28.808Z,7.80
2023-05-02T00:19:39.086Z,7.78
2023-05-02T00:19:46.366Z,7.88
2023-05-02T00:19:53.559Z,7.83
2023-05-02T00:20:01.151Z,7.87
2023-05-02T00:20:10.174Z,7.63
2023-05-02T00:20:34.160Z,8.33
2023-05-02T00:20:41.680Z,8.06
2023-05-02T00:20:48.968Z,8.06
2023-05-02T00:20:56.764Z,7.60
2023-05-02T00:21:04.407Z,7.13
2023-05-02T00:21:11.578Z,7.17
2023-05-02T00:21:36.479Z,7.35
2023-05-02T00:21:46.274Z,7.53
2023-05-02T00:21:53.588Z,7.21
2023-05-02T00:22:00.918Z,7.47
2023-05-02T00:22:08.138Z,7.43
2023-05-02T00:22:15.334Z,7.76
2023-05-02T00:22:38.407Z,8.07
2023-05-02T00:22:52.669Z,8.07
2023-05-02T00:23:02.566Z,8.04
2023-05-02T00:23:12.352Z,7.89
2023-05-02T00:23:20.665Z,7.56
2023-05-02T00:23:27.817Z,7.77
2023-05-02T00:23:42.339Z,7.43
2023-05-02T00:23:58.387Z,7.13
2023-05-02T00:24:06.492Z,7.12
2023-05-02T00:24:15.199Z,7.37
2023-05-02T00:24:24.959Z,7.46
2023-05-02T00:24:32.143Z,7.69
2023-05-02T00:24:45.234Z,7.60
2023-05-02T00:25:04.521Z,7.26
2023-05-02T00:25:16.371Z,7.15
2023-05-02T00:25:25.876Z,7.29
2023-05-02T00:25:33.059Z,7.65
2023-05-02T00:25:45.771Z,7.80
2023-05-02T00:25:55.602Z,7.69
2023-05-02T00:26:10.155Z,7.60
2023-05-02T00:26:21.497Z,7.74
2023-05-02T00:26:29.196Z,7.68
2023-05-02T00:26:37.725Z,7.73
2023-05-02T00:26:52.267Z,7.72
2023-05-02T00:26:59.395Z,7.90
2023-05-02T00:27:14.714Z,7.70
2023-05-02T00:27:21.934Z,7.57
2023-05-02T00:27:33.511Z,7.47
2023-05-02T00:27:40.631Z,7.39
2023-05-02T00:27:56.614Z,7.83
2023-05-02T00:28:03.893Z,8.47
2023-05-02T00:28:20.582Z,8.18
2023-05-02T00:28:31.982Z,7.63
2023-05-02T00:28:40.485Z,7.60
2023-05-02T00:28:47.653Z,7.68
2023-05-02T00:29:02.279Z,8.40
2023-05-02T00:29:12.133Z,8.50
2023-05-02T00:29:26.542Z,7.72
2023-05-02T00:29:33.716Z,7.56
2023-05-02T00:29:41.227Z,7.53
2023-05-02T00:29:48.670Z,7.50
2023-05-02T00:30:03.436Z,7.50
2023-05-02T00:30:12.798Z,7.74
2023-05-02T00:30:31.486Z,7.73
2023-05-02T00:30:43.274Z,7.55
2023-05-02T00:30:51.970Z,7.53
2023-05-02T00:30:59.852Z,7.46
2023-05-02T00:31:07.210Z,7.73
2023-05-02T00:31:14.385Z,7.43
2023-05-02T00:31:36.503Z,7.70
2023-05-02T00:31:43.788Z,7.45
2023-05-02T00:31:53.613Z,7.30
2023-05-02T00:32:00.864Z,7.01
2023-05-02T00:32:08.116Z,6.96
2023-05-02T00:32:15.301Z,7.18
2023-05-02T00:32:37.396Z,7.14
2023-05-02T00:32:44.816Z,7.52
2023-05-02T00:32:54.463Z,7.63
2023-05-02T00:33:03.053Z,8.00
2023-05-02T00:33:16.042Z,8.07
2023-05-02T00:33:23.317Z,8.01
2023-05-02T00:33:37.971Z,7.72
2023-05-02T00:33:45.268Z,7.34
2023-05-02T00:33:59.616Z,8.33
2023-05-02T00:34:07.800Z,8.43
2023-05-02T00:34:16.288Z,8.47
2023-05-02T00:34:23.660Z,8.13
2023-05-02T00:34:39.537Z,7.74
2023-05-02T00:34:47.924Z,7.63
2023-05-02T00:35:07.416Z,7.10
2023-05-02T00:35:14.809Z,7.14
2023-05-02T00:35:21.999Z,7.30
2023-05-02T00:35:29.462Z,7.68
2023-05-02T00:35:44.384Z,7.94
2023-05-02T00:35:53.951Z,8.15
2023-05-02T00:36:14.443Z,7.83
2023-05-02T00:36:24.654Z,7.64
2023-05-02T00:36:34.631Z,7.57
2023-05-02T00:36:41.969Z,8.01
2023-05-02T00:36:50.239Z,8.20
2023-05-02T00:36:58.118Z,8.70
2023-05-02T00:37:21.911Z,8.67
2023-05-02T00:37:29.225Z,8.31
2023-05-02T00:37:36.831Z,8.10
2023-05-02T00:37:44.841Z,7.87
2023-05-02T00:37:52.041Z,7.33
2023-05-02T00:38:05.955Z,7.70
2023-05-02T00:38:27.695Z,8.13
2023-05-02T00:38:34.897Z,8.26
2023-05-02T00:38:42.101Z,8.20
2023-05-02T00:38:49.420Z,8.23
2023-05-02T00:38:56.871Z,8.03
2023-05-02T00:39:13.505Z,8.03
2023-05-02T00:39:30.352Z,7.90
2023-05-02T00:39:37.772Z,7.99
2023-05-02T00:39:45.248Z,7.97
2023-05-02T00:39:53.871Z,7.82
2023-05-02T00:40:01.551Z,7.53
2023-05-02T00:40:19.905Z,7.70
2023-05-02T00:40:43.482Z,7.88
2023-05-02T00:40:54.127Z,8.09
2023-05-02T00:41:01.321Z,8.57
2023-05-02T00:41:08.551Z,8.13
2023-05-02T00:41:17.356Z,7.93
2023-05-02T00:41:24.589Z,8.10
2023-05-02T00:41:46.071Z,8.02
2023-05-02T00:41:57.526Z,7.94
2023-05-02T00:42:05.109Z,7.90
2023-05-02T00:42:12.307Z,7.80
2023-05-02T00:42:19.577Z,7.50
2023-05-02T00:42:31.623Z,7.50
2023-05-02T00:42:55.226Z,7.63
2023-05-02T00:43:02.453Z,7.49
2023-05-02T00:43:09.832Z,7.07
2023-05-02T00:43:17.626Z,7.10
2023-05-02T00:43:24.800Z,7.27
2023-05-02T00:43:32.087Z,7.43
2023-05-02T00:43:57.291Z,7.62
2023-05-02T00:44:04.650Z,7.45
2023-05-02T00:44:11.868Z,7.28
2023-05-02T00:44:20.144Z,7.16
2023-05-02T00:44:28.501Z,7.37
2023-05-02T00:44:35.679Z,7.42
2023-05-02T00:44:57.822Z,7.72
2023-05-02T00:45:08.510Z,7.78
2023-05-02T00:45:16.011Z,7.83
2023-05-02T00:45:23.702Z,7.63
2023-05-02T00:45:33.888Z,7.53
2023-05-02T00:45:46.543Z,7.51
2023-05-02T00:46:04.555Z,7.43
2023-05-02T00:46:13.154Z,7.60
2023-05-02T00:46:23.248Z,8.20
2023-05-02T00:46:30.826Z,8.11
2023-05-02T00:46:39.016Z,7.97
2023-05-02T00:46:53.884Z,7.57
2023-05-02T00:47:09.795Z,7.77
2023-05-02T00:47:18.476Z,8.07
2023-05-02T00:47:26.102Z,7.87
2023-05-02T00:47:34.150Z,7.92
2023-05-02T00:47:41.810Z,7.85
2023-05-02T00:47:57.524Z,7.70
2023-05-02T00:48:18.153Z,7.82
2023-05-02T00:48:26.107Z,7.77
2023-05-02T00:48:33.499Z,7.70
2023-05-02T00:48:40.776Z,7.70
2023-05-02T00:48:48.059Z,8.20
2023-05-02T00:49:05.094Z,8.74
2023-05-02T00:49:20.302Z,8.32
2023-05-02T00:49:31.267Z,8.03
2023-05-02T00:49:38.559Z,8.00
2023-05-02T00:49:48.597Z,8.44
2023-05-02T00:49:58.486Z,8.40
2023-05-02T00:50:07.430Z,8.57
2023-05-02T00:50:22.114Z,8.47
2023-05-02T00:50:33.886Z,8.30
2023-05-02T00:50:42.621Z,8.06
2023-05-02T00:50:53.948Z,8.17
2023-05-02T00:51:05.144Z,7.90
2023-05-02T00:51:13.569Z,7.94
2023-05-02T00:51:23.552Z,7.87
2023-05-02T00:51:38.417Z,7.63
2023-05-02T00:51:45.814Z,7.43
2023-05-02T00:51:54.372Z,7.85
2023-05-02T00:52:10.749Z,8.43
2023-05-02T00:52:21.134Z,8.50
2023-05-02T00:52:31.796Z,8.29
2023-05-02T00:52:39.918Z,8.53
2023-05-02T00:52:47.689Z,8.48
2023-05-02T00:52:57.086Z,8.08
2023-05-02T00:53:12.074Z,7.67
2023-05-02T00:53:31.195Z,7.79
2023-05-02T00:53:38.560Z,7.66
2023-05-02T00:53:46.238Z,8.04
2023-05-02T00:53:57.957Z,8.27
2023-05-02T00:54:06.455Z,8.56
2023-05-02T00:54:15.873Z,8.63
2023-05-02T00:54:32.245Z,8.26
2023-05-02T00:54:39.900Z,8.44
2023-05-02T00:54:48.198Z,8.60
2023-05-02T00:55:03.812Z,8.68
2023-05-02T00:55:11.133Z,8.63
2023-05-02T00:55:19.211Z,8.70
2023-05-02T00:55:36.729Z,8.72
2023-05-02T00:55:44.145Z,8.61
2023-05-02T00:55:51.439Z,8.73
2023-05-02T00:56:08.526Z,8.54
2023-05-02T00:56:15.715Z,8.68
2023-05-02T00:56:22.916Z,8.68
2023-05-02T00:56:37.484Z,8.52
2023-05-02T00:56:44.727Z,8.57
2023-05-02T00:56:52.004Z,8.50
2023-05-02T00:57:09.289Z,8.81
2023-05-02T00:57:16.750Z,8.80
2023-05-02T00:57:23.967Z,8.77
2023-05-02T00:57:39.796Z,8.68
2023-05-02T00:57:48.523Z,8.69
2023-05-02T00:57:55.918Z,8.83
2023-05-02T00:58:18.214Z,8.81
2023-05-02T00:58:27.473Z,8.78
2023-05-02T00:58:35.552Z,9.06
2023-05-02T00:58:44.005Z,9.30
2023-05-02T00:58:51.700Z,9.34
2023-05-02T00:58:59.738Z,9.05
2023-05-02T00:59:27.034Z,7.98
2023-05-02T00:59:35.682Z,8.19
2023-05-02T00:59:54.735Z,8.53
2023-05-02T01:00:02.535Z,8.80
2023-05-02T01:00:11.809Z,8.90
2023-05-02T01:00:19.234Z,8.69
2023-05-02T01:00:37.537Z,8.63
2023-05-02T01:00:59.646Z,8.41
2023-05-02T01:01:25.966Z,9.07
2023-05-02T01:01:40.972Z,8.89
2023-05-02T01:01:57.735Z,8.38
2023-05-02T01:02:18.971Z,8.66
2023-05-02T01:02:38.432Z,8.65
2023-05-02T01:02:56.340Z,9.11
2023-05-02T01:03:31.889Z,9.07
2023-05-02T01:03:46.786Z,8.98
2023-05-02T01:04:05.258Z,8.85
2023-05-02T01:04:31.400Z,8.85
2023-05-02T01:04:53.684Z,8.93
2023-05-02T01:05:10.775Z,9.45
2023-05-02T01:05:24.545Z,9.46
2023-05-02T01:05:44.040Z,8.74
2023-05-02T01:06:03.949Z,8.54
2023-05-02T01:06:43.988Z,8.86
2023-05-02T01:07:10.014Z,9.15
2023-05-02T01:07:31.058Z,9.18
2023-05-02T01:07:57.467Z,9.04
2023-05-02T01:08:15.365Z,8.76
2023-05-02T01:08:35.340Z,8.55
2023-05-02T01:08:51.096Z,8.99
2023-05-02T01:09:09.873Z,9.44
2023-05-02T01:09:33.414Z,8.96
2023-05-02T01:09:53.833Z,8.66
2023-05-02T01:10:13.173Z,8.69
2023-05-02T01:10:32.228Z,9.00
2023-05-02T01:10:53.208Z,9.21
2023-05-02T01:11:11.360Z,9.19
2023-05-02T01:11:31.538Z,9.13
2023-05-02T01:11:49.096Z,9.15
2023-05-02T01:12:05.085Z,8.95
2023-05-02T01:12:24.847Z,8.74
2023-05-02T01:12:43.331Z,8.88
2023-05-02T01:12:59.355Z,8.65
2023-05-02T01:13:12.261Z,8.57
2023-05-02T01:13:22.552Z,9.06
2023-05-02T01:13:34.100Z,9.19
2023-05-02T01:13:43.621Z,8.85
2023-05-02T01:13:53.487Z,8.73
2023-05-02T01:14:09.577Z,8.84
2023-05-02T01:14:18.852Z,8.73
2023-05-02T01:14:31.428Z,8.57
2023-05-02T01:14:44.708Z,8.46
2023-05-02T01:14:54.697Z,8.27
2023-05-02T01:15:06.122Z,8.31
2023-05-02T01:15:17.798Z,8.30
2023-05-02T01:15:25.609Z,8.13
2023-05-02T01:15:33.872Z,8.07
2023-05-02T01:15:52.438Z,8.30
2023-05-02T01:16:04.754Z,8.57
2023-05-02T01:16:14.655Z,9.09
2023-05-02T01:16:27.884Z,8.80
2023-05-02T01:16:42.443Z,8.77
2023-05-02T01:16:54.206Z,8.81
2023-05-02T01:17:08.807Z,9.21
2023-05-02T01:17:17.565Z,9.23
2023-05-02T01:17:29.227Z,8.97
2023-05-02T01:17:40.947Z,8.50
2023-05-02T01:17:52.978Z,8.73
2023-05-02T01:18:03.061Z,9.27
2023-05-02T01:18:13.226Z,9.25
2023-05-02T01:18:24.191Z,8.70
2023-05-02T01:18:35.980Z,8.72
2023-05-02T01:18:45.811Z,8.76
2023-05-02T01:18:54.351Z,8.66
2023-05-02T01:19:08.210Z,8.27
2023-05-02T01:19:28.472Z,8.15
2023-05-02T01:19:37.357Z,8.15
2023-05-02T01:19:51.456Z,8.30
2023-05-02T01:20:05.589Z,8.21
2023-05-02T01:20:24.833Z,8.39
2023-05-02T01:20:36.975Z,8.56
2023-05-02T01:20:48.484Z,8.40
2023-05-02T01:21:01.048Z,8.01
2023-05-02T01:21:10.486Z,7.95
2023-05-02T01:21:18.035Z,7.97
2023-05-02T01:21:29.889Z,8.27
2023-05-02T01:21:38.101Z,8.43
2023-05-02T01:21:54.399Z,8.30
2023-05-02T01:22:14.688Z,8.63
2023-05-02T01:22:24.935Z,8.18
2023-05-02T01:22:34.093Z,8.07
2023-05-02T01:22:42.016Z,7.74
2023-05-02T01:22:51.921Z,7.90
2023-05-02T01:23:07.684Z,8.31
2023-05-02T01:23:25.156Z,8.93
2023-05-02T01:23:43.927Z,8.60
2023-05-02T01:24:01.389Z,8.05
2023-05-02T01:24:17.058Z,8.32
2023-05-02T01:24:30.963Z,8.29
2023-05-02T01:24:49.263Z,7.75
2023-05-02T01:25:04.751Z,7.86
2023-05-02T01:25:30.063Z,8.06
2023-05-02T01:25:48.798Z,8.26
2023-05-02T01:26:06.282Z,9.02
2023-05-02T01:26:21.665Z,9.24
2023-05-02T01:26:36.805Z,8.86
2023-05-02T01:26:55.771Z,8.63
2023-05-02T01:27:16.682Z,8.39
2023-05-02T01:27:34.753Z,8.59
2023-05-02T01:27:50.509Z,8.48
2023-05-02T01:28:09.929Z,8.34
2023-05-02T01:28:32.241Z,8.27
2023-05-02T01:28:56.254Z,8.23
2023-05-02T01:29:05.778Z,7.97
2023-05-02T01:29:16.226Z,7.79
2023-05-02T01:29:28.344Z,7.94
2023-05-02T01:29:37.735Z,7.81
2023-05-02T01:29:46.758Z,8.09
2023-05-02T01:29:59.796Z,8.23
2023-05-02T01:30:10.254Z,8.34
2023-05-02T01:30:20.892Z,8.44
2023-05-02T01:30:30.715Z,8.53
2023-05-02T01:30:44.094Z,8.86
2023-05-02T01:30:56.745Z,8.66
2023-05-02T01:31:07.251Z,8.39
2023-05-02T01:31:16.677Z,8.13
2023-05-02T01:31:27.364Z,8.20
2023-05-02T01:31:43.835Z,8.28
2023-05-02T01:31:51.802Z,8.38
2023-05-02T01:32:07.272Z,8.53
2023-05-02T01:32:16.989Z,8.44
2023-05-02T01:32:25.239Z,8.20
2023-05-02T01:32:35.437Z,8.16
2023-05-02T01:32:46.616Z,7.56
2023-05-02T01:32:55.679Z,6.83
2023-05-02T01:33:18.415Z,6.89
2023-05-02T01:33:29.052Z,6.31
2023-05-02T01:33:38.523Z,5.57
2023-05-02T01:33:48.285Z,5.51
2023-05-02T01:34:00.586Z,5.63
2023-05-02T01:34:10.546Z,5.85
2023-05-02T01:34:21.836Z,5.87
2023-05-02T01:34:29.944Z,6.03
2023-05-02T01:34:43.608Z,6.20
2023-05-02T01:34:53.393Z,6.30
2023-05-02T01:35:04.486Z,6.44
2023-05-02T01:35:14.745Z,6.60
2023-05-02T01:35:23.311Z,6.20
2023-05-02T01:35:33.264Z,6.00
2023-05-02T01:35:45.366Z,5.88
2023-05-02T01:35:54.115Z,6.00
2023-05-02T01:36:04.143Z,5.73
2023-05-02T01:36:24.508Z,5.40
2023-05-02T01:36:34.751Z,5.38
2023-05-02T01:36:46.949Z,5.03
2023-05-02T01:36:57.922Z,5.15
2023-05-02T01:37:10.586Z,5.44
2023-05-02T01:37:20.646Z,5.48
2023-05-02T01:37:34.861Z,5.37
2023-05-02T01:37:48.632Z,5.47
2023-05-02T01:37:58.361Z,5.56
2023-05-02T01:38:07.616Z,5.20
2023-05-02T01:38:15.976Z,5.03
2023-05-02T01:38:25.483Z,5.02
2023-05-02T01:38:35.395Z,5.09
2023-05-02T01:38:52.652Z,5.21
2023-05-02T01:39:04.464Z,5.40
2023-05-02T01:39:16.200Z,4.99
2023-05-02T01:39:25.635Z,4.59
2023-05-02T01:39:33.662Z,4.23
2023-05-02T01:39:43.105Z,4.17
2023-05-02T01:39:58.559Z,4.31
2023-05-02T01:40:09.653Z,4.39
2023-05-02T01:40:22.868Z,4.34
2023-05-02T01:40:33.773Z,4.55
2023-05-02T01:40:46.072Z,4.41
2023-05-02T01:40:56.951Z,4.31
2023-05-02T01:41:07.528Z,4.41
2023-05-02T01:41:15.684Z,4.44
2023-05-02T01:41:26.178Z,4.30
2023-05-02T01:41:35.712Z,4.33
2023-05-02T01:41:59.176Z,4.10
2023-05-02T01:42:06.656Z,4.26
2023-05-02T01:42:15.299Z,4.54
2023-05-02T01:42:24.011Z,4.33
2023-05-02T01:42:34.112Z,4.21
2023-05-02T01:42:43.791Z,4.30
2023-05-02T01:43:03.846Z,4.34
2023-05-02T01:43:15.989Z,4.10
2023-05-02T01:43:27.982Z,4.06
2023-05-02T01:43:38.401Z,3.83
2023-05-02T01:43:47.547Z,4.04
2023-05-02T01:43:59.496Z,4.03
2023-05-02T01:44:08.925Z,4.16
2023-05-02T01:44:17.628Z,3.71
2023-05-02T01:44:37.815Z,3.93
2023-05-02T01:44:47.301Z,4.06
2023-05-02T01:44:56.924Z,4.00
2023-05-02T01:45:07.781Z,3.93
2023-05-02T01:45:16.843Z,3.86
2023-05-02T01:45:25.065Z,3.94
2023-05-02T01:45:47.988Z,3.99
2023-05-02T01:45:57.931Z,4.00
2023-05-02T01:46:12.041Z,3.74
2023-05-02T01:46:20.951Z,3.44
2023-05-02T01:46:34.838Z,3.67
2023-05-02T01:46:44.157Z,3.79
2023-05-02T01:46:53.830Z,3.93
2023-05-02T01:47:02.654Z,3.53
2023-05-02T01:47:20.214Z,3.03
2023-05-02T01:47:31.076Z,3.17
2023-05-02T01:47:42.262Z,3.37
2023-05-02T01:47:52.959Z,3.61
2023-05-02T01:48:02.306Z,3.42
2023-05-02T01:48:12.378Z,3.46
2023-05-02T01:48:20.208Z,3.48
2023-05-02T01:48:36.962Z,3.63
2023-05-02T01:48:49.480Z,3.60
2023-05-02T01:49:00.727Z,3.80
2023-05-02T01:49:12.420Z,3.76
2023-05-02T01:49:21.265Z,3.33
2023-05-02T01:49:32.025Z,3.10
2023-05-02T01:49:42.233Z,3.20
2023-05-02T01:49:50.284Z,3.47
2023-05-02T01:50:09.679Z,3.81
2023-05-02T01:50:21.938Z,3.96
2023-05-02T01:50:31.849Z,3.97
2023-05-02T01:50:43.428Z,3.93
2023-05-02T01:50:54.742Z,3.98
2023-05-02T01:51:03.769Z,4.14
2023-05-02T01:51:12.557Z,4.24
2023-05-02T01:51:33.312Z,3.70
2023-05-02T01:51:44.740Z,3.70
2023-05-02T01:51:53.552Z,3.54
2023-05-02T01:52:05.269Z,3.83
2023-05-02T01:52:16.950Z,3.87
2023-05-02T01:52:26.032Z,3.94
2023-05-02T01:52:33.993Z,3.86
2023-05-02T01:52:52.008Z,3.63
2023-05-02T01:53:03.711Z,3.49
2023-05-02T01:53:15.569Z,3.55
2023-05-02T01:53:24.177Z,3.55
2023-05-02T01:53:36.085Z,3.67
2023-05-02T01:53:47.429Z,3.78
2023-05-02T01:53:57.099Z,3.88
2023-05-02T01:54:07.560Z,3.31
2023-05-02T01:54:17.546Z,3.23
2023-05-02T01:54:27.018Z,3.37
2023-05-02T01:54:39.084Z,3.53
2023-05-02T01:54:59.273Z,3.80
2023-05-02T01:55:15.188Z,3.56
2023-05-02T01:55:24.484Z,3.22
2023-05-02T01:55:33.833Z,3.30
2023-05-02T01:55:45.521Z,3.77
2023-05-02T01:55:55.319Z,3.79
2023-05-02T01:56:03.931Z,3.84
2023-05-02T01:56:21.587Z,3.47
2023-05-02T01:56:37.756Z,3.17
2023-05-02T01:56:46.798Z,2.74
2023-05-02T01:56:55.958Z,2.97
2023-05-02T01:57:05.475Z,3.26
2023-05-02T01:57:15.547Z,3.90
2023-05-02T01:57:22.916Z,3.87
2023-05-02T01:57:40.277Z,3.53
2023-05-02T01:57:53.873Z,3.65
2023-05-02T01:58:02.488Z,3.81
2023-05-02T01:58:10.400Z,4.09
2023-05-02T01:58:19.612Z,4.05
2023-05-02T01:58:30.940Z,3.76
2023-05-02T01:58:43.010Z,3.44
2023-05-02T01:59:09.796Z,3.49
2023-05-02T01:59:20.523Z,3.78
2023-05-02T01:59:30.461Z,3.88
2023-05-02T01:59:39.045Z,3.81
2023-05-02T01:59:48.440Z,3.63
2023-05-02T01:59:57.774Z,3.35
2023-05-02T02:00:20.984Z,3.11
2023-05-02T02:00:30.285Z,3.26
2023-05-02T02:00:41.264Z,3.47
2023-05-02T02:00:49.282Z,3.42
2023-05-02T02:01:01.329Z,3.97
2023-05-02T02:01:11.362Z,3.89
2023-05-02T02:01:31.499Z,3.33
2023-05-02T02:01:41.721Z,3.50
2023-05-02T02:01:51.789Z,3.46
2023-05-02T02:02:00.170Z,3.55
2023-05-02T02:02:09.368Z,3.40
2023-05-02T02:02:18.088Z,3.37
2023-05-02T02:02:38.279Z,3.47
2023-05-02T02:02:48.986Z,3.30
2023-05-02T02:02:57.881Z,3.11
2023-05-02T02:03:07.146Z,3.10
2023-05-02T02:03:16.760Z,2.95
2023-05-02T02:03:24.896Z,2.79
2023-05-02T02:03:43.875Z,2.53
2023-05-02T02:04:04.231Z,2.44
2023-05-02T02:04:15.256Z,2.50
2023-05-02T02:04:25.686Z,2.64
2023-05-02T02:04:36.401Z,2.51
2023-05-02T02:04:46.197Z,2.40
2023-05-02T02:04:55.113Z,2.42
2023-05-02T02:05:05.277Z,2.27
2023-05-02T02:05:26.850Z,2.23
2023-05-02T02:05:35.342Z,2.33
2023-05-02T02:05:45.949Z,2.46
2023-05-02T02:05:55.646Z,2.53
2023-05-02T02:06:04.265Z,3.30
2023-05-02T02:06:15.889Z,3.30
2023-05-02T02:06:31.640Z,3.00
2023-05-02T02:06:45.032Z,2.60
2023-05-02T02:06:58.285Z,2.40
2023-05-02T02:07:12.814Z,2.22
2023-05-02T02:07:20.154Z,2.56
2023-05-02T02:07:27.492Z,2.56
2023-05-02T02:07:35.031Z,2.72
2023-05-02T02:07:51.186Z,1.99
2023-05-02T02:07:59.210Z,2.06
2023-05-02T02:08:13.875Z,2.00
2023-05-02T02:08:21.549Z,2.17
2023-05-02T02:08:28.810Z,2.38
2023-05-02T02:08:36.476Z,2.83
2023-05-02T02:08:54.092Z,3.02
2023-05-02T02:09:01.914Z,2.86
2023-05-02T02:09:19.300Z,2.59
2023-05-02T02:09:26.766Z,2.50
2023-05-02T02:09:34.842Z,2.33
2023-05-02T02:09:43.206Z,2.13
2023-05-02T02:10:01.340Z,2.10
2023-05-02T02:10:09.723Z,2.04
2023-05-02T02:10:30.969Z,2.14
2023-05-02T02:10:41.836Z,2.54
2023-05-02T02:10:54.425Z,2.58
2023-05-02T02:11:08.293Z,2.65
2023-05-02T02:11:22.369Z,2.64
2023-05-02T02:11:36.063Z,2.51
2023-05-02T02:11:52.510Z,2.17
2023-05-02T02:12:07.205Z,2.41
2023-05-02T02:12:22.247Z,2.50
2023-05-02T02:12:36.968Z,2.20
2023-05-02T02:12:54.545Z,2.44
2023-05-02T02:13:07.836Z,2.44
2023-05-02T02:13:19.298Z,2.59
2023-05-02T02:13:31.406Z,2.91
2023-05-02T02:13:44.394Z,2.60
2023-05-02T02:14:09.197Z,2.38
2023-05-02T02:14:20.474Z,2.28
2023-05-02T02:14:34.064Z,2.49
2023-05-02T02:14:51.898Z,2.38
2023-05-02T02:15:04.030Z,2.21
2023-05-02T02:15:20.026Z,2.74
2023-05-02T02:15:32.357Z,2.79
2023-05-02T02:15:46.076Z,2.22
2023-05-02T02:15:59.616Z,2.26
2023-05-02T02:16:15.521Z,2.46
2023-05-02T02:16:29.516Z,1.89
2023-05-02T02:16:39.931Z,1.86
2023-05-02T02:16:48.037Z,2.16
2023-05-02T02:17:05.419Z,2.22
2023-05-02T02:17:19.474Z,2.26
2023-05-02T02:17:30.613Z,2.10
2023-05-02T02:17:41.813Z,2.09
2023-05-02T02:17:56.035Z,2.23
2023-05-02T02:18:10.116Z,2.34
2023-05-02T02:18:22.518Z,2.19
2023-05-02T02:18:33.201Z,1.94
2023-05-02T02:18:40.362Z,1.80
2023-05-02T02:18:51.283Z,1.88
2023-05-02T02:19:05.561Z,2.20
2023-05-02T02:19:15.741Z,2.11
2023-05-02T02:19:24.184Z,1.89
2023-05-02T02:19:34.830Z,2.22
2023-05-02T02:19:43.191Z,2.40
2023-05-02T02:19:54.559Z,2.37
2023-05-02T02:20:08.896Z,1.99
2023-05-02T02:20:19.829Z,1.69
2023-05-02T02:20:32.428Z,1.96
2023-05-02T02:20:43.539Z,1.99
2023-05-02T02:20:51.916Z,1.77
2023-05-02T02:20:59.939Z,1.60
2023-05-02T02:21:10.009Z,1.65
2023-05-02T02:21:31.245Z,1.64
2023-05-02T02:21:41.312Z,1.80
2023-05-02T02:21:54.971Z,1.98
2023-05-02T02:22:05.453Z,2.20
2023-05-02T02:22:15.642Z,2.27
2023-05-02T02:22:27.037Z,2.11
2023-05-02T02:22:39.057Z,2.02
2023-05-02T02:22:48.009Z,2.00
2023-05-02T02:22:57.240Z,1.81
2023-05-02T02:23:08.598Z,1.56
2023-05-02T02:23:20.368Z,1.62
2023-05-02T02:23:30.480Z,1.80
2023-05-02T02:23:39.966Z,2.04
2023-05-02T02:23:49.278Z,2.33
2023-05-02T02:24:00.388Z,2.42
2023-05-02T02:24:21.430Z,2.40
2023-05-02T02:24:32.968Z,2.15
2023-05-02T02:24:41.359Z,1.99
2023-05-02T02:24:55.198Z,2.21
2023-05-02T02:25:07.006Z,2.50
2023-05-02T02:25:16.916Z,2.21
2023-05-02T02:25:25.971Z,1.77
2023-05-02T02:25:35.236Z,1.70
2023-05-02T02:25:45.605Z,1.81
2023-05-02T02:26:02.990Z,2.27
2023-05-02T02:26:10.821Z,2.30
2023-05-02T02:26:23.961Z,2.30
2023-05-02T02:26:31.341Z,2.17
2023-05-02T02:26:39.130Z,2.10
2023-05-02T02:26:46.980Z,2.27
2023-05-02T02:27:10.217Z,2.03
2023-05-02T02:27:17.784Z,1.84
2023-05-02T02:27:28.072Z,1.74
2023-05-02T02:27:36.629Z,1.83
2023-05-02T02:27:43.989Z,1.77
2023-05-02T02:27:51.827Z,1.80
2023-05-02T02:28:17.962Z,2.10
2023-05-02T02:28:25.709Z,2.19
2023-05-02T02:28:34.943Z,2.43
2023-05-02T02:28:43.054Z,2.39
2023-05-02T02:28:50.919Z,2.10
2023-05-02T02:29:03.974Z,1.70
2023-05-02T02:29:19.729Z,1.60
2023-05-02T02:29:27.353Z,1.54
2023-05-02T02:29:41.944Z,1.82
2023-05-02T02:29:51.525Z,1.90
2023-05-02T02:29:59.415Z,2.09
2023-05-02T02:30:13.967Z,2.30
2023-05-02T02:30:21.177Z,2.14
2023-05-02T02:30:28.900Z,1.80
2023-05-02T02:30:44.687Z,1.88
2023-05-02T02:30:52.042Z,2.03
2023-05-02T02:31:00.927Z,2.12
2023-05-02T02:31:15.323Z,2.20
2023-05-02T02:31:22.771Z,1.90
2023-05-02T02:31:33.808Z,1.82
2023-05-02T02:31:50.973Z,1.80
2023-05-02T02:31:58.118Z,1.85
2023-05-02T02:32:05.629Z,1.64
2023-05-02T02:32:21.317Z,1.84
2023-05-02T02:32:28.634Z,1.97
2023-05-02T02:32:36.285Z,2.40
2023-05-02T02:32:51.252Z,2.32
2023-05-02T02:32:58.559Z,2.38
2023-05-02T02:33:09.493Z,2.20
2023-05-02T02:33:30.122Z,2.46
2023-05-02T02:33:41.004Z,2.33
2023-05-02T02:33:48.629Z,2.24
2023-05-02T02:33:58.669Z,1.90
2023-05-02T02:34:06.381Z,1.91
2023-05-02T02:34:15.549Z,1.93
2023-05-02T02:34:32.773Z,2.38
2023-05-02T02:34:49.737Z,2.52
2023-05-02T02:34:59.732Z,2.55
2023-05-02T02:35:08.102Z,2.50
2023-05-02T02:35:15.422Z,2.40
2023-05-02T02:35:23.870Z,2.23
2023-05-02T02:35:37.964Z,2.43
2023-05-02T02:35:50.731Z,2.66
2023-05-02T02:36:13.597Z,2.34
2023-05-02T02:36:28.517Z,2.31
2023-05-02T02:36:44.909Z,2.81
2023-05-02T02:36:57.290Z,2.54
2023-05-02T02:37:09.293Z,2.35
2023-05-02T02:37:19.791Z,2.15
2023-05-02T02:37:32.483Z,2.05
2023-05-02T02:37:47.961Z,2.05
2023-05-02T02:38:03.380Z,2.40
2023-05-02T02:38:22.076Z,2.64